sensor_id;sensor_type;location;lat;lon;timestamp;P1;durP1;ratioP1;P2;durP2;ratioP2
25129;SDS011;13308;50.860;13.664;2023-07-22T05:19:00;8.90;;;7.32;;
25129;SDS011;13308;50.860;13.664;2023-07-22T05:21:25;10.55;;;7.22;;
25129;SDS011;13308;50.860;13.664;2023-07-22T05:23:51;13.75;;;7.90;;
25129;SDS011;13308;50.860;13.664;2023-07-22T05:26:16;7.97;;;6.70;;
25129;SDS011;13308;50.860;13.664;2023-07-22T05:28:41;7.13;;;6.40;;
25129;SDS011;13308;50.860;13.664;2023-07-22T05:31:07;8.32;;;6.40;;
25129;SDS011;13308;50.860;13.664;2023-07-22T05:33:32;11.65;;;8.27;;
25129;SDS011;13308;50.860;13.664;2023-07-22T05:35:58;7.53;;;6.82;;
25129;SDS011;13308;50.860;13.664;2023-07-22T05:38:23;10.70;;;6.47;;
25129;SDS011;13308;50.860;13.664;2023-07-22T05:40:48;6.93;;;6.32;;
25129;SDS011;13308;50.860;13.664;2023-07-22T05:43:14;8.15;;;7.35;;
25129;SDS011;13308;50.860;13.664;2023-07-22T05:45:39;7.45;;;6.78;;
25129;SDS011;13308;50.860;13.664;2023-07-22T05:48:04;7.78;;;6.10;;
25129;SDS011;13308;50.860;13.664;2023-07-22T05:50:30;6.55;;;5.93;;
25129;SDS011;13308;50.860;13.664;2023-07-22T05:52:55;7.40;;;6.35;;
25129;SDS011;13308;50.860;13.664;2023-07-22T05:55:21;6.30;;;5.60;;
25129;SDS011;13308;50.860;13.664;2023-07-22T05:57:46;7.63;;;5.28;;
25129;SDS011;13308;50.860;13.664;2023-07-22T06:00:11;6.22;;;5.65;;
25129;SDS011;13308;50.860;13.664;2023-07-22T06:02:38;8.60;;;6.30;;
25129;SDS011;13308;50.860;13.664;2023-07-22T06:05:03;8.68;;;6.70;;
25129;SDS011;13308;50.860;13.664;2023-07-22T06:07:29;9.18;;;6.50;;
25129;SDS011;13308;50.860;13.664;2023-07-22T06:09:54;6.95;;;6.22;;
25129;SDS011;13308;50.860;13.664;2023-07-22T06:12:20;8.65;;;6.38;;
25129;SDS011;13308;50.860;13.664;2023-07-22T06:14:45;8.95;;;6.30;;
25129;SDS011;13308;50.860;13.664;2023-07-22T06:17:10;8.23;;;6.55;;
25129;SDS011;13308;50.860;13.664;2023-07-22T06:19:36;7.88;;;6.25;;
25129;SDS011;13308;50.860;13.664;2023-07-22T06:22:01;8.50;;;6.55;;
25129;SDS011;13308;50.860;13.664;2023-07-22T06:24:26;8.07;;;6.22;;
25129;SDS011;13308;50.860;13.664;2023-07-22T06:26:52;6.80;;;5.90;;
25129;SDS011;13308;50.860;13.664;2023-07-22T06:29:17;10.70;;;6.45;;
25129;SDS011;13308;50.860;13.664;2023-07-22T06:31:42;6.93;;;6.13;;
25129;SDS011;13308;50.860;13.664;2023-07-22T06:34:08;7.00;;;6.00;;
25129;SDS011;13308;50.860;13.664;2023-07-22T06:36:33;9.50;;;6.15;;
25129;SDS011;13308;50.860;13.664;2023-07-22T06:38:59;7.20;;;6.05;;
25129;SDS011;13308;50.860;13.664;2023-07-22T06:41:24;9.35;;;6.00;;
25129;SDS011;13308;50.860;13.664;2023-07-22T06:43:49;7.28;;;5.80;;
25129;SDS011;13308;50.860;13.664;2023-07-22T06:46:15;9.55;;;6.07;;
25129;SDS011;13308;50.860;13.664;2023-07-22T06:48:41;8.05;;;5.78;;
25129;SDS011;13308;50.860;13.664;2023-07-22T06:51:06;7.57;;;6.00;;
25129;SDS011;13308;50.860;13.664;2023-07-22T06:53:32;7.00;;;5.43;;
25129;SDS011;13308;50.860;13.664;2023-07-22T06:55:58;6.57;;;5.53;;
25129;SDS011;13308;50.860;13.664;2023-07-22T06:58:23;6.57;;;5.70;;
25129;SDS011;13308;50.860;13.664;2023-07-22T07:00:55;6.18;;;5.43;;
25129;SDS011;13308;50.860;13.664;2023-07-22T07:03:21;5.57;;;4.88;;
25129;SDS011;13308;50.860;13.664;2023-07-22T07:05:53;6.45;;;5.63;;
25129;SDS011;13308;50.860;13.664;2023-07-22T07:08:21;5.85;;;5.18;;
25129;SDS011;13308;50.860;13.664;2023-07-22T07:10:47;6.55;;;5.75;;
25129;SDS011;13308;50.860;13.664;2023-07-22T07:13:12;5.72;;;5.00;;
25129;SDS011;13308;50.860;13.664;2023-07-22T07:15:38;7.70;;;5.70;;
25129;SDS011;13308;50.860;13.664;2023-07-22T07:18:03;7.72;;;5.13;;
25129;SDS011;13308;50.860;13.664;2023-07-22T07:20:29;7.40;;;5.70;;
25129;SDS011;13308;50.860;13.664;2023-07-22T07:22:54;6.70;;;6.00;;
25129;SDS011;13308;50.860;13.664;2023-07-22T07:25:19;5.47;;;4.90;;
25129;SDS011;13308;50.860;13.664;2023-07-22T07:27:44;6.15;;;5.55;;
25129;SDS011;13308;50.860;13.664;2023-07-22T07:30:10;5.60;;;5.10;;
25129;SDS011;13308;50.860;13.664;2023-07-22T07:32:36;7.68;;;5.97;;
25129;SDS011;13308;50.860;13.664;2023-07-22T07:35:01;11.38;;;5.90;;
25129;SDS011;13308;50.860;13.664;2023-07-22T07:37:27;6.95;;;5.75;;
25129;SDS011;13308;50.860;13.664;2023-07-22T07:39:53;8.30;;;5.72;;
25129;SDS011;13308;50.860;13.664;2023-07-22T07:42:18;7.35;;;5.80;;
25129;SDS011;13308;50.860;13.664;2023-07-22T07:44:43;7.72;;;5.47;;
25129;SDS011;13308;50.860;13.664;2023-07-22T07:47:09;6.32;;;5.70;;
25129;SDS011;13308;50.860;13.664;2023-07-22T07:49:34;7.15;;;5.63;;
25129;SDS011;13308;50.860;13.664;2023-07-22T07:51:59;8.15;;;5.88;;
25129;SDS011;13308;50.860;13.664;2023-07-22T07:54:25;8.43;;;6.10;;
25129;SDS011;13308;50.860;13.664;2023-07-22T07:56:50;8.60;;;5.53;;
25129;SDS011;13308;50.860;13.664;2023-07-22T07:59:15;8.18;;;5.53;;
25129;SDS011;13308;50.860;13.664;2023-07-22T08:01:41;6.85;;;6.25;;
25129;SDS011;13308;50.860;13.664;2023-07-22T08:04:09;6.53;;;5.75;;
25129;SDS011;13308;50.860;13.664;2023-07-22T08:06:34;6.35;;;5.75;;
25129;SDS011;13308;50.860;13.664;2023-07-22T08:09:01;7.05;;;6.35;;
25129;SDS011;13308;50.860;13.664;2023-07-22T08:11:27;8.15;;;6.15;;
25129;SDS011;13308;50.860;13.664;2023-07-22T08:13:53;19.88;;;6.30;;
25129;SDS011;13308;50.860;13.664;2023-07-22T08:16:18;7.07;;;6.38;;
25129;SDS011;13308;50.860;13.664;2023-07-22T08:18:44;6.70;;;6.00;;
25129;SDS011;13308;50.860;13.664;2023-07-22T08:21:12;8.20;;;6.50;;
25129;SDS011;13308;50.860;13.664;2023-07-22T08:23:37;7.25;;;6.55;;
25129;SDS011;13308;50.860;13.664;2023-07-22T08:26:03;7.10;;;6.50;;
25129;SDS011;13308;50.860;13.664;2023-07-22T08:28:32;8.63;;;6.70;;
25129;SDS011;13308;50.860;13.664;2023-07-22T08:30:58;6.82;;;6.22;;
25129;SDS011;13308;50.860;13.664;2023-07-22T08:33:25;7.63;;;6.65;;
25129;SDS011;13308;50.860;13.664;2023-07-22T08:35:51;7.80;;;6.10;;
25129;SDS011;13308;50.860;13.664;2023-07-22T08:38:16;6.25;;;5.57;;
25129;SDS011;13308;50.860;13.664;2023-07-22T08:40:42;8.50;;;5.32;;
25129;SDS011;13308;50.860;13.664;2023-07-22T08:43:08;7.10;;;6.00;;
25129;SDS011;13308;50.860;13.664;2023-07-22T08:45:35;6.30;;;5.68;;
25129;SDS011;13308;50.860;13.664;2023-07-22T08:48:10;7.45;;;6.13;;
25129;SDS011;13308;50.860;13.664;2023-07-22T08:50:44;7.50;;;5.72;;
25129;SDS011;13308;50.860;13.664;2023-07-22T08:53:20;6.60;;;5.93;;
25129;SDS011;13308;50.860;13.664;2023-07-22T08:55:46;5.85;;;5.22;;
25129;SDS011;13308;50.860;13.664;2023-07-22T08:58:13;7.50;;;5.13;;
25129;SDS011;13308;50.860;13.664;2023-07-22T09:00:38;5.65;;;5.05;;
25129;SDS011;13308;50.860;13.664;2023-07-22T09:03:04;5.28;;;4.78;;
25129;SDS011;13308;50.860;13.664;2023-07-22T09:05:31;4.78;;;4.38;;
25129;SDS011;13308;50.860;13.664;2023-07-22T09:07:58;6.20;;;4.38;;
25129;SDS011;13308;50.860;13.664;2023-07-22T09:10:24;6.57;;;5.00;;
25129;SDS011;13308;50.860;13.664;2023-07-22T09:12:52;5.90;;;5.40;;
25129;SDS011;13308;50.860;13.664;2023-07-22T09:15:18;4.88;;;4.38;;
25129;SDS011;13308;50.860;13.664;2023-07-22T09:17:44;5.53;;;5.03;;
25129;SDS011;13308;50.860;13.664;2023-07-22T09:20:09;4.68;;;4.25;;
25129;SDS011;13308;50.860;13.664;2023-07-22T09:22:39;5.18;;;4.25;;
25129;SDS011;13308;50.860;13.664;2023-07-22T09:25:12;4.25;;;3.85;;
25129;SDS011;13308;50.860;13.664;2023-07-22T09:27:41;4.03;;;3.63;;
25129;SDS011;13308;50.860;13.664;2023-07-22T09:30:52;5.03;;;3.85;;
25129;SDS011;13308;50.860;13.664;2023-07-22T09:33:06;6.03;;;3.85;;
25129;SDS011;13308;50.860;13.664;2023-07-22T09:35:45;4.43;;;3.90;;
25129;SDS011;13308;50.860;13.664;2023-07-22T09:38:12;3.72;;;3.35;;
25129;SDS011;13308;50.860;13.664;2023-07-22T09:40:41;3.38;;;3.08;;
25129;SDS011;13308;50.860;13.664;2023-07-22T09:43:09;5.57;;;3.50;;
25129;SDS011;13308;50.860;13.664;2023-07-22T09:45:35;3.83;;;3.50;;
25129;SDS011;13308;50.860;13.664;2023-07-22T09:48:02;3.92;;;3.42;;
25129;SDS011;13308;50.860;13.664;2023-07-22T09:50:28;3.67;;;2.92;;
25129;SDS011;13308;50.860;13.664;2023-07-22T09:52:54;3.25;;;2.95;;
25129;SDS011;13308;50.860;13.664;2023-07-22T09:55:21;4.45;;;2.75;;
25129;SDS011;13308;50.860;13.664;2023-07-22T09:57:55;2.78;;;2.58;;
25129;SDS011;13308;50.860;13.664;2023-07-22T10:00:29;3.00;;;2.70;;
25129;SDS011;13308;50.860;13.664;2023-07-22T10:02:56;4.80;;;3.13;;
25129;SDS011;13308;50.860;13.664;2023-07-22T10:05:22;2.83;;;2.55;;
25129;SDS011;13308;50.860;13.664;2023-07-22T10:07:50;3.15;;;2.38;;
25129;SDS011;13308;50.860;13.664;2023-07-22T10:10:18;2.67;;;2.47;;
25129;SDS011;13308;50.860;13.664;2023-07-22T10:12:44;3.70;;;3.10;;
25129;SDS011;13308;50.860;13.664;2023-07-22T10:15:11;3.28;;;2.97;;
25129;SDS011;13308;50.860;13.664;2023-07-22T10:17:39;4.15;;;3.70;;
25129;SDS011;13308;50.860;13.664;2023-07-22T10:20:09;3.65;;;3.35;;
25129;SDS011;13308;50.860;13.664;2023-07-22T10:22:43;3.88;;;3.58;;
25129;SDS011;13308;50.860;13.664;2023-07-22T10:25:10;3.28;;;2.97;;
25129;SDS011;13308;50.860;13.664;2023-07-22T10:27:37;3.45;;;3.15;;
25129;SDS011;13308;50.860;13.664;2023-07-22T10:30:04;2.83;;;2.63;;
25129;SDS011;13308;50.860;13.664;2023-07-22T10:32:34;3.53;;;2.78;;
25129;SDS011;13308;50.860;13.664;2023-07-22T10:35:01;3.13;;;2.90;;
25129;SDS011;13308;50.860;13.664;2023-07-22T10:37:30;3.30;;;2.90;;
25129;SDS011;13308;50.860;13.664;2023-07-22T10:40:44;3.30;;;3.00;;
25129;SDS011;13308;50.860;13.664;2023-07-22T10:42:54;3.20;;;2.90;;
25129;SDS011;13308;50.860;13.664;2023-07-22T10:45:26;3.17;;;2.90;;
25129;SDS011;13308;50.860;13.664;2023-07-22T10:48:05;3.33;;;3.03;;
25129;SDS011;13308;50.860;13.664;2023-07-22T10:53:11;3.55;;;3.00;;
25129;SDS011;13308;50.860;13.664;2023-07-22T10:56:02;4.13;;;3.35;;
25129;SDS011;13308;50.860;13.664;2023-07-22T10:58:32;3.47;;;2.80;;
25129;SDS011;13308;50.860;13.664;2023-07-22T11:04:12;4.40;;;3.40;;
25129;SDS011;13308;50.860;13.664;2023-07-22T11:06:39;3.33;;;2.78;;
25129;SDS011;13308;50.860;13.664;2023-07-22T11:12:16;2.97;;;2.78;;
25129;SDS011;13308;50.860;13.664;2023-07-22T11:14:50;3.30;;;2.97;;
25129;SDS011;13308;50.860;13.664;2023-07-22T11:17:17;2.83;;;2.60;;
25129;SDS011;13308;50.860;13.664;2023-07-22T11:19:43;2.70;;;2.50;;
25129;SDS011;13308;50.860;13.664;2023-07-22T11:22:10;4.90;;;2.63;;
25129;SDS011;13308;50.860;13.664;2023-07-22T11:24:35;3.35;;;3.05;;
25129;SDS011;13308;50.860;13.664;2023-07-22T11:27:05;3.63;;;3.33;;
25129;SDS011;13308;50.860;13.664;2023-07-22T11:29:33;3.08;;;2.88;;
25129;SDS011;13308;50.860;13.664;2023-07-22T11:31:59;3.42;;;3.10;;
25129;SDS011;13308;50.860;13.664;2023-07-22T11:34:24;3.08;;;2.83;;
25129;SDS011;13308;50.860;13.664;2023-07-22T11:36:51;3.13;;;2.88;;
25129;SDS011;13308;50.860;13.664;2023-07-22T11:39:18;2.70;;;2.50;;
25129;SDS011;13308;50.860;13.664;2023-07-22T11:41:45;2.88;;;2.55;;
25129;SDS011;13308;50.860;13.664;2023-07-22T11:44:16;3.35;;;2.67;;
25129;SDS011;13308;50.860;13.664;2023-07-22T11:52:06;3.65;;;2.55;;
25129;SDS011;13308;50.860;13.664;2023-07-22T11:54:37;2.50;;;2.30;;
25129;SDS011;13308;50.860;13.664;2023-07-22T11:57:16;2.72;;;2.47;;
25129;SDS011;13308;50.860;13.664;2023-07-22T11:59:52;2.85;;;2.65;;
25129;SDS011;13308;50.860;13.664;2023-07-22T12:02:19;2.92;;;2.60;;
25129;SDS011;13308;50.860;13.664;2023-07-22T12:04:52;2.50;;;2.30;;
25129;SDS011;13308;50.860;13.664;2023-07-22T12:07:26;2.53;;;2.33;;
25129;SDS011;13308;50.860;13.664;2023-07-22T12:09:54;2.83;;;2.63;;
25129;SDS011;13308;50.860;13.664;2023-07-22T12:12:21;2.40;;;2.20;;
25129;SDS011;13308;50.860;13.664;2023-07-22T12:14:46;2.60;;;2.40;;
25129;SDS011;13308;50.860;13.664;2023-07-22T12:17:11;2.90;;;2.60;;
25129;SDS011;13308;50.860;13.664;2023-07-22T12:19:37;4.20;;;2.70;;
25129;SDS011;13308;50.860;13.664;2023-07-22T12:22:02;2.30;;;2.10;;
25129;SDS011;13308;50.860;13.664;2023-07-22T12:24:28;4.03;;;2.50;;
25129;SDS011;13308;50.860;13.664;2023-07-22T12:26:53;2.75;;;2.53;;
25129;SDS011;13308;50.860;13.664;2023-07-22T12:29:19;2.95;;;2.67;;
25129;SDS011;13308;50.860;13.664;2023-07-22T12:31:45;2.90;;;2.60;;
25129;SDS011;13308;50.860;13.664;2023-07-22T12:34:10;2.58;;;2.15;;
25129;SDS011;13308;50.860;13.664;2023-07-22T12:36:35;2.58;;;2.38;;
25129;SDS011;13308;50.860;13.664;2023-07-22T12:39:01;3.22;;;2.90;;
25129;SDS011;13308;50.860;13.664;2023-07-22T12:41:26;3.00;;;2.80;;
25129;SDS011;13308;50.860;13.664;2023-07-22T12:43:51;3.33;;;2.70;;
25129;SDS011;13308;50.860;13.664;2023-07-22T12:46:17;2.35;;;2.15;;
25129;SDS011;13308;50.860;13.664;2023-07-22T12:48:42;2.60;;;2.40;;
25129;SDS011;13308;50.860;13.664;2023-07-22T12:51:08;2.47;;;2.28;;
25129;SDS011;13308;50.860;13.664;2023-07-22T12:53:34;3.00;;;2.70;;
25129;SDS011;13308;50.860;13.664;2023-07-22T12:55:59;2.78;;;2.42;;
25129;SDS011;13308;50.860;13.664;2023-07-22T12:58:27;2.60;;;2.40;;
25129;SDS011;13308;50.860;13.664;2023-07-22T13:00:52;3.13;;;2.92;;
25129;SDS011;13308;50.860;13.664;2023-07-22T13:03:17;4.20;;;2.50;;
25129;SDS011;13308;50.860;13.664;2023-07-22T13:05:43;2.78;;;2.58;;
25129;SDS011;13308;50.860;13.664;2023-07-22T13:08:08;2.72;;;2.53;;
25129;SDS011;13308;50.860;13.664;2023-07-22T13:10:33;2.83;;;2.63;;
25129;SDS011;13308;50.860;13.664;2023-07-22T13:13:02;3.85;;;2.80;;
25129;SDS011;13308;50.860;13.664;2023-07-22T13:15:27;3.80;;;2.60;;
25129;SDS011;13308;50.860;13.664;2023-07-22T13:17:52;2.72;;;2.53;;
25129;SDS011;13308;50.860;13.664;2023-07-22T13:20:17;3.05;;;2.75;;
25129;SDS011;13308;50.860;13.664;2023-07-22T13:22:43;3.38;;;2.65;;
25129;SDS011;13308;50.860;13.664;2023-07-22T13:25:08;3.65;;;2.67;;
25129;SDS011;13308;50.860;13.664;2023-07-22T13:27:36;3.00;;;2.67;;
25129;SDS011;13308;50.860;13.664;2023-07-22T13:30:05;3.00;;;2.70;;
25129;SDS011;13308;50.860;13.664;2023-07-22T13:32:34;2.78;;;2.58;;
25129;SDS011;13308;50.860;13.664;2023-07-22T13:34:59;3.03;;;2.70;;
25129;SDS011;13308;50.860;13.664;2023-07-22T13:37:25;2.72;;;2.50;;
25129;SDS011;13308;50.860;13.664;2023-07-22T13:39:50;3.38;;;2.60;;
25129;SDS011;13308;50.860;13.664;2023-07-22T13:42:16;3.22;;;2.92;;
25129;SDS011;13308;50.860;13.664;2023-07-22T13:44:41;3.35;;;2.50;;
25129;SDS011;13308;50.860;13.664;2023-07-22T13:47:06;2.70;;;2.50;;
25129;SDS011;13308;50.860;13.664;2023-07-22T13:49:32;2.92;;;2.67;;
25129;SDS011;13308;50.860;13.664;2023-07-22T13:51:57;2.80;;;2.60;;
25129;SDS011;13308;50.860;13.664;2023-07-22T13:54:22;3.00;;;2.80;;
25129;SDS011;13308;50.860;13.664;2023-07-22T13:56:48;3.78;;;2.58;;
25129;SDS011;13308;50.860;13.664;2023-07-22T13:59:13;2.58;;;2.38;;
25129;SDS011;13308;50.860;13.664;2023-07-22T14:01:39;3.15;;;2.85;;
25129;SDS011;13308;50.860;13.664;2023-07-22T14:04:04;3.22;;;2.78;;
25129;SDS011;13308;50.860;13.664;2023-07-22T14:06:30;3.10;;;2.90;;
25129;SDS011;13308;50.860;13.664;2023-07-22T14:08:56;2.95;;;2.75;;
25129;SDS011;13308;50.860;13.664;2023-07-22T14:11:21;3.33;;;2.95;;
25129;SDS011;13308;50.860;13.664;2023-07-22T14:13:46;3.47;;;3.17;;
25129;SDS011;13308;50.860;13.664;2023-07-22T14:16:12;2.85;;;2.65;;
25129;SDS011;13308;50.860;13.664;2023-07-22T14:18:37;2.67;;;2.38;;
25129;SDS011;13308;50.860;13.664;2023-07-22T14:21:02;2.75;;;2.55;;
25129;SDS011;13308;50.860;13.664;2023-07-22T14:23:28;3.47;;;2.83;;
25129;SDS011;13308;50.860;13.664;2023-07-22T14:25:53;2.90;;;2.60;;
25129;SDS011;13308;50.860;13.664;2023-07-22T14:28:18;3.17;;;2.92;;
25129;SDS011;13308;50.860;13.664;2023-07-22T14:30:44;3.00;;;2.70;;
25129;SDS011;13308;50.860;13.664;2023-07-22T14:33:09;7.82;;;2.65;;
25129;SDS011;13308;50.860;13.664;2023-07-22T14:35:35;2.65;;;2.45;;
25129;SDS011;13308;50.860;13.664;2023-07-22T14:38:01;3.00;;;2.80;;
25129;SDS011;13308;50.860;13.664;2023-07-22T14:40:26;3.33;;;2.78;;
25129;SDS011;13308;50.860;13.664;2023-07-22T14:42:51;2.65;;;2.45;;
25129;SDS011;13308;50.860;13.664;2023-07-22T14:45:17;2.65;;;2.45;;
25129;SDS011;13308;50.860;13.664;2023-07-22T14:47:42;2.70;;;2.50;;
25129;SDS011;13308;50.860;13.664;2023-07-22T14:50:08;2.53;;;2.33;;
25129;SDS011;13308;50.860;13.664;2023-07-22T14:52:34;2.72;;;2.53;;
25129;SDS011;13308;50.860;13.664;2023-07-22T14:54:59;2.40;;;2.20;;
25129;SDS011;13308;50.860;13.664;2023-07-22T14:57:24;3.03;;;2.70;;
25129;SDS011;13308;50.860;13.664;2023-07-22T14:59:54;2.60;;;2.40;;
25129;SDS011;13308;50.860;13.664;2023-07-22T15:02:20;3.30;;;2.78;;
25129;SDS011;13308;50.860;13.664;2023-07-22T15:04:46;2.70;;;2.50;;
25129;SDS011;13308;50.860;13.664;2023-07-22T15:07:12;3.10;;;2.80;;
25129;SDS011;13308;50.860;13.664;2023-07-22T15:09:37;3.30;;;2.97;;
25129;SDS011;13308;50.860;13.664;2023-07-22T15:12:03;3.30;;;3.00;;
25129;SDS011;13308;50.860;13.664;2023-07-22T15:14:28;3.67;;;3.13;;
25129;SDS011;13308;50.860;13.664;2023-07-22T15:16:53;2.70;;;2.50;;
25129;SDS011;13308;50.860;13.664;2023-07-22T15:19:19;3.92;;;2.88;;
25129;SDS011;13308;50.860;13.664;2023-07-22T15:21:44;2.78;;;2.58;;
25129;SDS011;13308;50.860;13.664;2023-07-22T15:24:09;3.22;;;2.75;;
25129;SDS011;13308;50.860;13.664;2023-07-22T15:26:35;3.03;;;2.72;;
25129;SDS011;13308;50.860;13.664;2023-07-22T15:29:00;2.75;;;2.55;;
25129;SDS011;13308;50.860;13.664;2023-07-22T15:31:25;3.70;;;3.40;;
25129;SDS011;13308;50.860;13.664;2023-07-22T15:33:51;2.88;;;2.60;;
25129;SDS011;13308;50.860;13.664;2023-07-22T15:36:16;3.72;;;2.90;;
25129;SDS011;13308;50.860;13.664;2023-07-22T15:38:42;2.92;;;2.72;;
25129;SDS011;13308;50.860;13.664;2023-07-22T15:41:07;8.38;;;2.78;;
25129;SDS011;13308;50.860;13.664;2023-07-22T15:43:32;3.17;;;2.88;;
25129;SDS011;13308;50.860;13.664;2023-07-22T15:45:58;3.30;;;3.00;;
25129;SDS011;13308;50.860;13.664;2023-07-22T15:48:24;3.67;;;2.75;;
25129;SDS011;13308;50.860;13.664;2023-07-22T15:50:50;4.07;;;3.67;;
25129;SDS011;13308;50.860;13.664;2023-07-22T15:53:15;3.30;;;3.00;;
25129;SDS011;13308;50.860;13.664;2023-07-22T15:55:41;3.63;;;3.13;;
25129;SDS011;13308;50.860;13.664;2023-07-22T15:58:07;4.53;;;3.00;;
25129;SDS011;13308;50.860;13.664;2023-07-22T16:00:32;4.03;;;3.65;;
25129;SDS011;13308;50.860;13.664;2023-07-22T16:02:58;5.03;;;3.25;;
25129;SDS011;13308;50.860;13.664;2023-07-22T16:05:23;3.13;;;2.83;;
25129;SDS011;13308;50.860;13.664;2023-07-22T16:07:49;3.53;;;3.22;;
25129;SDS011;13308;50.860;13.664;2023-07-22T16:10:15;3.45;;;3.03;;
25129;SDS011;13308;50.860;13.664;2023-07-22T16:12:40;3.90;;;3.58;;
25129;SDS011;13308;50.860;13.664;2023-07-22T16:15:06;3.83;;;3.33;;
25129;SDS011;13308;50.860;13.664;2023-07-22T16:17:32;3.67;;;2.92;;
25129;SDS011;13308;50.860;13.664;2023-07-22T16:19:58;3.13;;;2.83;;
25129;SDS011;13308;50.860;13.664;2023-07-22T16:22:23;3.42;;;3.05;;
25129;SDS011;13308;50.860;13.664;2023-07-22T16:24:49;3.85;;;2.88;;
25129;SDS011;13308;50.860;13.664;2023-07-22T16:27:14;5.60;;;3.22;;
25129;SDS011;13308;50.860;13.664;2023-07-22T16:29:40;3.35;;;3.00;;
25129;SDS011;13308;50.860;13.664;2023-07-22T16:32:06;4.03;;;3.22;;
25129;SDS011;13308;50.860;13.664;2023-07-22T16:34:32;4.15;;;3.10;;
25129;SDS011;13308;50.860;13.664;2023-07-22T16:36:58;4.00;;;3.50;;
25129;SDS011;13308;50.860;13.664;2023-07-22T16:39:23;4.55;;;3.50;;
25129;SDS011;13308;50.860;13.664;2023-07-22T16:41:49;4.20;;;2.92;;
25129;SDS011;13308;50.860;13.664;2023-07-22T16:44:15;3.28;;;2.97;;
25129;SDS011;13308;50.860;13.664;2023-07-22T16:46:42;6.57;;;3.40;;
25129;SDS011;13308;50.860;13.664;2023-07-22T16:49:07;4.05;;;3.65;;
25129;SDS011;13308;50.860;13.664;2023-07-22T16:51:33;3.85;;;3.45;;
25129;SDS011;13308;50.860;13.664;2023-07-22T16:53:58;3.42;;;3.13;;
25129;SDS011;13308;50.860;13.664;2023-07-22T16:56:23;3.95;;;3.55;;
25129;SDS011;13308;50.860;13.664;2023-07-22T16:58:49;3.80;;;3.40;;
25129;SDS011;13308;50.860;13.664;2023-07-22T17:01:14;4.05;;;3.70;;
25129;SDS011;13308;50.860;13.664;2023-07-22T17:03:39;3.50;;;3.15;;
25129;SDS011;13308;50.860;13.664;2023-07-22T17:06:05;3.67;;;3.35;;
25129;SDS011;13308;50.860;13.664;2023-07-22T17:08:30;4.18;;;3.78;;
25129;SDS011;13308;50.860;13.664;2023-07-22T17:10:55;3.97;;;3.63;;
25129;SDS011;13308;50.860;13.664;2023-07-22T17:13:21;3.70;;;3.40;;
25129;SDS011;13308;50.860;13.664;2023-07-22T17:15:46;4.47;;;3.40;;
25129;SDS011;13308;50.860;13.664;2023-07-22T17:18:12;3.88;;;3.55;;
25129;SDS011;13308;50.860;13.664;2023-07-22T17:20:38;3.80;;;3.40;;
25129;SDS011;13308;50.860;13.664;2023-07-22T17:23:04;3.45;;;3.15;;
25129;SDS011;13308;50.860;13.664;2023-07-22T17:25:29;3.60;;;3.30;;
25129;SDS011;13308;50.860;13.664;2023-07-22T17:27:55;4.35;;;3.33;;
25129;SDS011;13308;50.860;13.664;2023-07-22T17:30:20;4.03;;;3.63;;
25129;SDS011;13308;50.860;13.664;2023-07-22T17:32:45;4.15;;;3.70;;
25129;SDS011;13308;50.860;13.664;2023-07-22T17:35:17;3.67;;;3.38;;
25129;SDS011;13308;50.860;13.664;2023-07-22T17:37:43;3.28;;;2.97;;
25129;SDS011;13308;50.860;13.664;2023-07-22T17:40:09;4.65;;;3.95;;
25129;SDS011;13308;50.860;13.664;2023-07-22T17:42:35;5.18;;;3.40;;
25129;SDS011;13308;50.860;13.664;2023-07-22T17:45:00;4.07;;;3.67;;
25129;SDS011;13308;50.860;13.664;2023-07-22T17:47:26;3.42;;;3.10;;
25129;SDS011;13308;50.860;13.664;2023-07-22T17:49:52;4.68;;;3.90;;
25129;SDS011;13308;50.860;13.664;2023-07-22T17:52:17;4.85;;;3.92;;
25129;SDS011;13308;50.860;13.664;2023-07-22T17:54:43;4.95;;;4.05;;
25129;SDS011;13308;50.860;13.664;2023-07-22T17:57:09;4.97;;;4.03;;
25129;SDS011;13308;50.860;13.664;2023-07-22T17:59:35;4.20;;;3.78;;
25129;SDS011;13308;50.860;13.664;2023-07-22T18:02:00;4.65;;;3.72;;
25129;SDS011;13308;50.860;13.664;2023-07-22T18:04:27;4.05;;;3.50;;
25129;SDS011;13308;50.860;13.664;2023-07-22T18:06:53;5.00;;;4.50;;
25129;SDS011;13308;50.860;13.664;2023-07-22T18:09:19;7.05;;;6.28;;
25129;SDS011;13308;50.860;13.664;2023-07-22T18:11:44;7.03;;;6.32;;
25129;SDS011;13308;50.860;13.664;2023-07-22T18:14:10;8.38;;;7.10;;
25129;SDS011;13308;50.860;13.664;2023-07-22T18:16:36;6.00;;;5.40;;
25129;SDS011;13308;50.860;13.664;2023-07-22T18:19:01;5.03;;;4.53;;
